Zarautz, Spain
Current Conditions -  °F | °C
As of 9:30 PM on Wednesday 26 Nov 2014 (Local Time) from LESO Reporting Station
Broken Clouds Broken Clouds  
Wind Chill: 55°   Ceiling: 6800
Heat Index: 55°   Visibility: 6mi
Dew Point: 54°   Wind: 1mph
Humidity: 94%   Direction: NA
Pressure: 29.83"   Gusts: NA
Location:  43.28°N, 2.17°W
Report Text: LESO 262030Z VRB01KT 9999 FEW009 SCT032 BKN068 13/12 Q1010
Loading
Personal Weather Stations






























Interactive Weather Map New forecast layout! Learn more

10-Day Weather Forecast

Advertisements
Track Severe Weather on mobile